Main page
Satellite images 10-day forecastsClimateMarine weather Cyclones Lightning AirportsFAQ Newsletter About
Weather : Europe Africa North America South America Asia Australia-Oceania Others
Languages Contact

London-Luton, England

Luton Airport

latitude: 51-52N, longitude: 000-22W, elevation: 160 m


METAR: EGGW 300350Z 26009KT CAVOK 07/05 Q1011
TAF: EGGW 292258Z 3000/3024 26008KT 9999 SCT040 BECMG 3018/3021 18012KT

Time: 05:09 (04:09 UTC)

Current weather observation

The report was made 19 minutes ago, at 03:50 UTC
Wind 9 kt from the West
Temperature 7°C
Humidity 87%
Pressure 1011 hPa
Visibility 10 km or more
no clouds below 1500 m and no cumulonimbus

Change units

Forecast

The report was made 5 hours and 11 minutes ago, at 22:58 UTC
Forecast valid from 30 at 00 UTC to 30 at 24 UTC
Wind 8 kt from the West
Visibility 10 km or more
Scattered clouds at a height of 4000 ft
Becoming
from 30 at 18 UTC to 30 at 21 UTC
Wind 12 kt from the South
The information on this site is subject to a disclaimer
Weather : Europe Africa North America South America Asia Australia-Oceania Others
Satellite images 10-day forecastsClimateMarine weather Cyclones Lightning AirportsFAQ Languages Contact Newsletter About